Terminal Aerodrome Forecast
Issued by NWS Rapid City, SD

Home | Current Version | Previous Version | Text Only | Print | Product List | Glossary Off
Versions: 1 2 3 4 5 6 7 8 9 10 11 12 13 14 15 16 17 18 19

415
FTUS43 KUNR 241125
TAFRAP
TAF
KRAP 241125Z 2412/2512 30013KT P6SM SCT100
     FM241400 33026G37KT P6SM BKN100
     FM242100 33016G26KT P6SM SCT200
     FM250000 31009KT P6SM SKC=

USA.gov is the U.S. government's official web portal to all federal, state and local government web resources and services.